sensor_id;sensor_type;location;lat;lon;timestamp;pressure;altitude;pressure_sealevel;temperature;humidity
59073;BME280;44859;51.934;15.554;2023-09-08T00:01:44;100515.75;;;18.06;65.92
59073;BME280;44859;51.934;15.554;2023-09-08T00:04:11;100517.14;;;18.07;65.70
59073;BME280;44859;51.934;15.554;2023-09-08T00:06:41;100515.13;;;18.07;66.01
59073;BME280;44859;51.934;15.554;2023-09-08T00:09:09;100514.19;;;18.06;65.95
59073;BME280;44859;51.934;15.554;2023-09-08T00:11:36;100509.95;;;18.03;66.28
59073;BME280;44859;51.934;15.554;2023-09-08T00:14:05;100508.70;;;18.00;66.07
59073;BME280;44859;51.934;15.554;2023-09-08T00:16:35;100509.17;;;18.04;66.15
59073;BME280;44859;51.934;15.554;2023-09-08T00:19:12;100510.46;;;18.08;66.07
59073;BME280;44859;51.934;15.554;2023-09-08T00:22:00;100507.63;;;18.11;66.01
59073;BME280;44859;51.934;15.554;2023-09-08T00:24:28;100509.61;;;18.10;66.32
59073;BME280;44859;51.934;15.554;2023-09-08T00:26:58;100506.15;;;18.09;66.35
59073;BME280;44859;51.934;15.554;2023-09-08T00:32:15;100499.27;;;17.90;66.83
59073;BME280;44859;51.934;15.554;2023-09-08T00:37:54;100498.66;;;17.85;66.65
59073;BME280;44859;51.934;15.554;2023-09-08T00:40:24;100497.45;;;17.87;66.94
59073;BME280;44859;51.934;15.554;2023-09-08T00:42:51;100499.30;;;17.84;67.15
59073;BME280;44859;51.934;15.554;2023-09-08T00:45:18;100499.11;;;17.81;67.03
59073;BME280;44859;51.934;15.554;2023-09-08T00:47:46;100501.24;;;17.81;67.04
59073;BME280;44859;51.934;15.554;2023-09-08T00:50:13;100500.08;;;17.80;67.34
59073;BME280;44859;51.934;15.554;2023-09-08T00:52:41;100497.85;;;17.68;67.87
59073;BME280;44859;51.934;15.554;2023-09-08T00:55:10;100502.98;;;17.55;68.04
59073;BME280;44859;51.934;15.554;2023-09-08T00:57:40;100498.91;;;17.41;68.30
59073;BME280;44859;51.934;15.554;2023-09-08T01:00:08;100501.37;;;17.39;68.52
59073;BME280;44859;51.934;15.554;2023-09-08T01:02:35;100498.89;;;17.36;68.56
59073;BME280;44859;51.934;15.554;2023-09-08T01:05:03;100501.46;;;17.35;68.62
59073;BME280;44859;51.934;15.554;2023-09-08T01:07:52;100496.66;;;17.35;68.80
59073;BME280;44859;51.934;15.554;2023-09-08T01:10:20;100496.59;;;17.41;68.99
59073;BME280;44859;51.934;15.554;2023-09-08T01:13:06;100496.27;;;17.47;68.84
59073;BME280;44859;51.934;15.554;2023-09-08T01:15:59;100495.52;;;17.47;69.00
59073;BME280;44859;51.934;15.554;2023-09-08T01:18:26;100492.76;;;17.43;68.81
59073;BME280;44859;51.934;15.554;2023-09-08T01:26:21;100489.20;;;17.24;69.64
59073;BME280;44859;51.934;15.554;2023-09-08T01:28:53;100484.94;;;17.21;69.82
59073;BME280;44859;51.934;15.554;2023-09-08T01:31:25;100480.77;;;17.17;70.09
59073;BME280;44859;51.934;15.554;2023-09-08T01:33:55;100480.48;;;17.11;70.35
59073;BME280;44859;51.934;15.554;2023-09-08T01:39:51;100479.04;;;17.03;70.89
59073;BME280;44859;51.934;15.554;2023-09-08T01:42:18;100483.02;;;16.99;70.76
59073;BME280;44859;51.934;15.554;2023-09-08T01:44:46;100478.96;;;16.91;71.16
59073;BME280;44859;51.934;15.554;2023-09-08T01:47:13;100479.98;;;16.80;71.66
59073;BME280;44859;51.934;15.554;2023-09-08T01:49:40;100479.91;;;16.72;71.95
59073;BME280;44859;51.934;15.554;2023-09-08T01:52:28;100477.93;;;16.67;72.07
59073;BME280;44859;51.934;15.554;2023-09-08T01:55:01;100479.23;;;16.66;72.38
59073;BME280;44859;51.934;15.554;2023-09-08T01:57:28;100475.11;;;16.64;72.45
59073;BME280;44859;51.934;15.554;2023-09-08T01:59:55;100473.02;;;16.61;72.72
59073;BME280;44859;51.934;15.554;2023-09-08T02:02:26;100472.48;;;16.61;72.85
59073;BME280;44859;51.934;15.554;2023-09-08T02:05:36;100469.15;;;16.60;72.99
59073;BME280;44859;51.934;15.554;2023-09-08T02:08:26;100468.16;;;16.45;73.36
59073;BME280;44859;51.934;15.554;2023-09-08T02:10:56;100466.67;;;16.32;73.53
59073;BME280;44859;51.934;15.554;2023-09-08T02:14:28;100467.36;;;16.24;73.94
59073;BME280;44859;51.934;15.554;2023-09-08T02:20:19;100465.94;;;16.12;74.76
59073;BME280;44859;51.934;15.554;2023-09-08T02:22:54;100464.67;;;16.01;74.94
59073;BME280;44859;51.934;15.554;2023-09-08T02:25:50;100463.53;;;15.90;75.37
59073;BME280;44859;51.934;15.554;2023-09-08T02:29:19;100463.63;;;15.89;75.54
59073;BME280;44859;51.934;15.554;2023-09-08T02:35:10;100463.14;;;15.94;76.20
59073;BME280;44859;51.934;15.554;2023-09-08T02:37:58;100462.11;;;15.93;76.19
59073;BME280;44859;51.934;15.554;2023-09-08T02:40:25;100461.06;;;15.90;76.27
59073;BME280;44859;51.934;15.554;2023-09-08T02:43:13;100461.27;;;15.87;76.54
59073;BME280;44859;51.934;15.554;2023-09-08T02:46:00;100462.45;;;15.90;76.78
59073;BME280;44859;51.934;15.554;2023-09-08T02:49:28;100458.17;;;15.99;76.71
59073;BME280;44859;51.934;15.554;2023-09-08T02:52:15;100457.80;;;16.09;76.69
59073;BME280;44859;51.934;15.554;2023-09-08T02:57:54;100454.05;;;16.27;76.61
59073;BME280;44859;51.934;15.554;2023-09-08T03:00:30;100449.90;;;16.31;76.28
59073;BME280;44859;51.934;15.554;2023-09-08T03:02:59;100445.29;;;16.33;76.08
59073;BME280;44859;51.934;15.554;2023-09-08T03:06:11;100443.88;;;16.36;76.09
59073;BME280;44859;51.934;15.554;2023-09-08T03:08:38;100439.31;;;16.35;76.19
59073;BME280;44859;51.934;15.554;2023-09-08T03:11:29;100436.72;;;16.37;75.98
59073;BME280;44859;51.934;15.554;2023-09-08T03:13:56;100439.23;;;16.40;75.97
59073;BME280;44859;51.934;15.554;2023-09-08T03:16:26;100437.86;;;16.45;75.93
59073;BME280;44859;51.934;15.554;2023-09-08T03:19:16;100435.63;;;16.52;75.62
59073;BME280;44859;51.934;15.554;2023-09-08T03:22:07;100439.36;;;16.58;75.69
59073;BME280;44859;51.934;15.554;2023-09-08T03:24:59;100440.55;;;16.53;75.47
59073;BME280;44859;51.934;15.554;2023-09-08T03:28:07;100439.31;;;16.47;75.58
59073;BME280;44859;51.934;15.554;2023-09-08T03:30:36;100441.66;;;16.43;75.66
59073;BME280;44859;51.934;15.554;2023-09-08T03:33:11;100442.88;;;16.44;75.60
59073;BME280;44859;51.934;15.554;2023-09-08T03:35:38;100443.10;;;16.43;75.65
59073;BME280;44859;51.934;15.554;2023-09-08T03:38:24;100441.52;;;16.43;75.47
59073;BME280;44859;51.934;15.554;2023-09-08T03:41:12;100444.29;;;16.44;75.35
59073;BME280;44859;51.934;15.554;2023-09-08T03:43:42;100444.54;;;16.42;75.53
59073;BME280;44859;51.934;15.554;2023-09-08T03:46:27;100441.98;;;16.41;75.70
59073;BME280;44859;51.934;15.554;2023-09-08T03:48:54;100440.16;;;16.39;75.70
59073;BME280;44859;51.934;15.554;2023-09-08T03:51:44;100445.77;;;16.34;75.66
59073;BME280;44859;51.934;15.554;2023-09-08T03:54:33;100448.16;;;16.30;75.83
59073;BME280;44859;51.934;15.554;2023-09-08T03:57:22;100450.11;;;16.25;75.96
59073;BME280;44859;51.934;15.554;2023-09-08T03:59:52;100447.89;;;16.23;75.99
59073;BME280;44859;51.934;15.554;2023-09-08T04:02:20;100447.05;;;16.23;76.14
59073;BME280;44859;51.934;15.554;2023-09-08T04:05:10;100445.58;;;16.20;76.47
59073;BME280;44859;51.934;15.554;2023-09-08T04:08:19;100443.30;;;16.16;76.55
59073;BME280;44859;51.934;15.554;2023-09-08T04:10:58;100442.77;;;16.14;76.67
59073;BME280;44859;51.934;15.554;2023-09-08T04:13:48;100446.55;;;16.13;76.77
59073;BME280;44859;51.934;15.554;2023-09-08T04:16:19;100446.45;;;16.11;76.92
59073;BME280;44859;51.934;15.554;2023-09-08T04:19:31;100449.34;;;16.08;77.06
59073;BME280;44859;51.934;15.554;2023-09-08T04:22:11;100446.51;;;16.02;77.29
59073;BME280;44859;51.934;15.554;2023-09-08T04:24:38;100447.48;;;15.95;77.47
59073;BME280;44859;51.934;15.554;2023-09-08T04:27:10;100444.02;;;15.82;77.88
59073;BME280;44859;51.934;15.554;2023-09-08T04:30:04;100445.30;;;15.74;78.31
59073;BME280;44859;51.934;15.554;2023-09-08T04:32:32;100444.80;;;15.71;78.61
59073;BME280;44859;51.934;15.554;2023-09-08T04:34:59;100450.66;;;15.68;78.71
59073;BME280;44859;51.934;15.554;2023-09-08T04:37:45;100450.51;;;15.65;78.86
59073;BME280;44859;51.934;15.554;2023-09-08T04:40:21;100452.92;;;15.62;79.24
59073;BME280;44859;51.934;15.554;2023-09-08T04:42:57;100455.69;;;15.70;79.38
59073;BME280;44859;51.934;15.554;2023-09-08T04:46:08;100451.19;;;15.74;79.40
59073;BME280;44859;51.934;15.554;2023-09-08T04:49:19;100454.09;;;15.73;79.62
59073;BME280;44859;51.934;15.554;2023-09-08T04:52:07;100450.86;;;15.77;79.67
59073;BME280;44859;51.934;15.554;2023-09-08T04:57:50;100449.48;;;15.91;79.68
59073;BME280;44859;51.934;15.554;2023-09-08T05:00:20;100450.66;;;15.95;79.73
59073;BME280;44859;51.934;15.554;2023-09-08T05:02:57;100451.08;;;16.00;79.55
59073;BME280;44859;51.934;15.554;2023-09-08T05:05:38;100452.68;;;16.06;79.46
59073;BME280;44859;51.934;15.554;2023-09-08T05:08:06;100454.08;;;16.14;79.42
59073;BME280;44859;51.934;15.554;2023-09-08T05:10:33;100454.13;;;16.20;79.33
59073;BME280;44859;51.934;15.554;2023-09-08T05:13:09;100459.46;;;16.20;79.47
59073;BME280;44859;51.934;15.554;2023-09-08T05:16:17;100454.73;;;16.18;79.33
59073;BME280;44859;51.934;15.554;2023-09-08T05:19:08;100453.78;;;16.22;79.30
59073;BME280;44859;51.934;15.554;2023-09-08T05:21:46;100454.52;;;16.30;79.33
59073;BME280;44859;51.934;15.554;2023-09-08T05:24:55;100455.66;;;16.38;79.12
59073;BME280;44859;51.934;15.554;2023-09-08T05:27:42;100460.80;;;16.46;79.16
59073;BME280;44859;51.934;15.554;2023-09-08T05:30:43;100463.09;;;16.55;78.83
59073;BME280;44859;51.934;15.554;2023-09-08T05:34:01;100462.90;;;16.64;78.69
59073;BME280;44859;51.934;15.554;2023-09-08T05:36:39;100461.89;;;16.74;78.30
59073;BME280;44859;51.934;15.554;2023-09-08T05:39:32;100462.78;;;16.85;78.38
59073;BME280;44859;51.934;15.554;2023-09-08T05:42:12;100464.39;;;16.94;78.10
59073;BME280;44859;51.934;15.554;2023-09-08T05:44:55;100462.24;;;17.02;77.90
59073;BME280;44859;51.934;15.554;2023-09-08T05:47:29;100462.71;;;17.12;77.68
59073;BME280;44859;51.934;15.554;2023-09-08T05:50:12;100462.64;;;17.23;77.13
59073;BME280;44859;51.934;15.554;2023-09-08T05:52:45;100459.73;;;17.33;77.05
59073;BME280;44859;51.934;15.554;2023-09-08T05:55:16;100455.28;;;17.41;76.90
59073;BME280;44859;51.934;15.554;2023-09-08T05:58:03;100456.93;;;17.53;76.40
59073;BME280;44859;51.934;15.554;2023-09-08T06:04:09;100458.80;;;17.81;75.82
59073;BME280;44859;51.934;15.554;2023-09-08T06:06:39;100457.89;;;17.89;75.37
59073;BME280;44859;51.934;15.554;2023-09-08T06:09:06;100458.19;;;17.98;75.35
59073;BME280;44859;51.934;15.554;2023-09-08T06:12:04;100458.84;;;18.09;75.03
59073;BME280;44859;51.934;15.554;2023-09-08T06:14:34;100461.13;;;18.20;74.60
59073;BME280;44859;51.934;15.554;2023-09-08T06:20:20;100465.13;;;18.46;73.90
59073;BME280;44859;51.934;15.554;2023-09-08T06:23:20;100463.88;;;18.57;73.77
59073;BME280;44859;51.934;15.554;2023-09-08T06:26:22;100461.96;;;18.86;73.16
59073;BME280;44859;51.934;15.554;2023-09-08T06:32:18;100457.79;;;19.66;71.44
59073;BME280;44859;51.934;15.554;2023-09-08T06:35:09;100456.98;;;19.87;70.72
59073;BME280;44859;51.934;15.554;2023-09-08T06:37:57;100456.23;;;20.10;69.96
59073;BME280;44859;51.934;15.554;2023-09-08T06:44:23;100455.07;;;20.70;68.42
59073;BME280;44859;51.934;15.554;2023-09-08T06:47:16;100455.13;;;20.98;67.57
59073;BME280;44859;51.934;15.554;2023-09-08T06:49:46;100455.27;;;21.20;66.51
59073;BME280;44859;51.934;15.554;2023-09-08T06:52:19;100453.14;;;21.27;65.70
59073;BME280;44859;51.934;15.554;2023-09-08T06:54:49;100457.06;;;21.31;65.02
59073;BME280;44859;51.934;15.554;2023-09-08T06:57:20;100454.46;;;21.24;64.36
59073;BME280;44859;51.934;15.554;2023-09-08T06:59:48;100457.13;;;21.22;64.59
59073;BME280;44859;51.934;15.554;2023-09-08T07:02:19;100455.73;;;21.23;64.30
59073;BME280;44859;51.934;15.554;2023-09-08T07:04:46;100456.05;;;21.26;64.25
59073;BME280;44859;51.934;15.554;2023-09-08T07:07:39;100452.88;;;21.34;64.14
59073;BME280;44859;51.934;15.554;2023-09-08T07:10:10;100448.02;;;21.54;63.94
59073;BME280;44859;51.934;15.554;2023-09-08T07:12:39;100445.53;;;21.61;63.48
59073;BME280;44859;51.934;15.554;2023-09-08T07:15:08;100445.25;;;21.68;63.30
59073;BME280;44859;51.934;15.554;2023-09-08T07:17:37;100446.38;;;21.84;62.54
59073;BME280;44859;51.934;15.554;2023-09-08T07:20:08;100445.70;;;21.88;62.51
59073;BME280;44859;51.934;15.554;2023-09-08T07:22:36;100445.16;;;21.92;62.60
59073;BME280;44859;51.934;15.554;2023-09-08T07:25:22;100446.85;;;21.98;62.39
59073;BME280;44859;51.934;15.554;2023-09-08T07:27:52;100444.65;;;22.00;62.14
59073;BME280;44859;51.934;15.554;2023-09-08T07:30:31;100443.16;;;21.95;61.81
59073;BME280;44859;51.934;15.554;2023-09-08T07:33:02;100443.77;;;21.89;61.77
59073;BME280;44859;51.934;15.554;2023-09-08T07:35:40;100442.56;;;21.89;61.77
59073;BME280;44859;51.934;15.554;2023-09-08T07:38:08;100442.95;;;21.93;61.76
59073;BME280;44859;51.934;15.554;2023-09-08T07:40:35;100443.96;;;21.70;62.08
59073;BME280;44859;51.934;15.554;2023-09-08T07:43:13;100445.63;;;21.74;62.54
59073;BME280;44859;51.934;15.554;2023-09-08T07:45:41;100451.16;;;21.78;62.49
59073;BME280;44859;51.934;15.554;2023-09-08T07:48:10;100448.54;;;21.82;62.51
59073;BME280;44859;51.934;15.554;2023-09-08T07:50:44;100448.28;;;22.00;62.54
59073;BME280;44859;51.934;15.554;2023-09-08T07:53:11;100449.04;;;22.12;62.22
59073;BME280;44859;51.934;15.554;2023-09-08T07:55:38;100448.80;;;21.98;61.49
59073;BME280;44859;51.934;15.554;2023-09-08T07:58:07;100451.33;;;21.82;61.65
59073;BME280;44859;51.934;15.554;2023-09-08T08:00:35;100452.62;;;21.91;61.84
59073;BME280;44859;51.934;15.554;2023-09-08T08:03:02;100450.47;;;22.17;61.51
59073;BME280;44859;51.934;15.554;2023-09-08T08:05:44;100450.52;;;22.15;60.88
59073;BME280;44859;51.934;15.554;2023-09-08T08:08:11;100449.30;;;22.02;61.08
59073;BME280;44859;51.934;15.554;2023-09-08T08:10:41;100451.36;;;22.15;61.29
59073;BME280;44859;51.934;15.554;2023-09-08T08:13:08;100450.16;;;22.44;61.39
59073;BME280;44859;51.934;15.554;2023-09-08T08:15:40;100447.11;;;22.50;60.95
59073;BME280;44859;51.934;15.554;2023-09-08T08:18:19;100451.64;;;22.45;60.96
59073;BME280;44859;51.934;15.554;2023-09-08T08:20:46;100450.77;;;22.41;61.18
59073;BME280;44859;51.934;15.554;2023-09-08T08:23:16;100447.70;;;22.43;60.75
59073;BME280;44859;51.934;15.554;2023-09-08T08:25:44;100443.73;;;22.54;60.57
59073;BME280;44859;51.934;15.554;2023-09-08T08:28:11;100443.56;;;22.60;60.88
59073;BME280;44859;51.934;15.554;2023-09-08T08:30:39;100442.62;;;22.62;60.37
59073;BME280;44859;51.934;15.554;2023-09-08T08:33:06;100438.98;;;22.67;60.17
59073;BME280;44859;51.934;15.554;2023-09-08T08:35:36;100438.13;;;22.71;59.95
59073;BME280;44859;51.934;15.554;2023-09-08T08:38:04;100435.95;;;22.73;59.81
59073;BME280;44859;51.934;15.554;2023-09-08T08:40:38;100433.21;;;22.76;59.84
59073;BME280;44859;51.934;15.554;2023-09-08T08:43:05;100431.34;;;22.85;59.93
59073;BME280;44859;51.934;15.554;2023-09-08T08:45:37;100423.45;;;22.77;59.84
59073;BME280;44859;51.934;15.554;2023-09-08T08:48:07;100420.11;;;22.68;60.50
59073;BME280;44859;51.934;15.554;2023-09-08T08:50:35;100421.01;;;22.76;60.19
59073;BME280;44859;51.934;15.554;2023-09-08T08:53:08;100416.48;;;22.79;59.85
59073;BME280;44859;51.934;15.554;2023-09-08T08:55:39;100413.16;;;22.74;59.66
59073;BME280;44859;51.934;15.554;2023-09-08T08:58:11;100415.03;;;22.73;59.58
59073;BME280;44859;51.934;15.554;2023-09-08T09:00:42;100413.98;;;22.58;59.85
59073;BME280;44859;51.934;15.554;2023-09-08T09:03:10;100411.19;;;22.58;60.18
59073;BME280;44859;51.934;15.554;2023-09-08T09:05:42;100406.91;;;22.68;59.98
59073;BME280;44859;51.934;15.554;2023-09-08T09:08:38;100409.76;;;22.76;59.63
59073;BME280;44859;51.934;15.554;2023-09-08T09:11:05;100409.08;;;22.79;59.52
59073;BME280;44859;51.934;15.554;2023-09-08T09:13:32;100407.15;;;22.93;59.02
59073;BME280;44859;51.934;15.554;2023-09-08T09:16:00;100404.52;;;23.08;59.15
59073;BME280;44859;51.934;15.554;2023-09-08T09:18:30;100403.12;;;23.20;59.39
59073;BME280;44859;51.934;15.554;2023-09-08T09:21:00;100400.28;;;23.29;58.69
59073;BME280;44859;51.934;15.554;2023-09-08T09:23:33;100400.42;;;23.37;58.22
59073;BME280;44859;51.934;15.554;2023-09-08T09:26:04;100402.97;;;23.39;58.04
59073;BME280;44859;51.934;15.554;2023-09-08T09:28:47;100399.02;;;23.46;58.24
59073;BME280;44859;51.934;15.554;2023-09-08T09:31:17;100401.94;;;23.63;57.79
59073;BME280;44859;51.934;15.554;2023-09-08T09:33:47;100398.28;;;23.54;58.09
59073;BME280;44859;51.934;15.554;2023-09-08T09:36:20;100399.31;;;23.70;58.15
59073;BME280;44859;51.934;15.554;2023-09-08T09:38:50;100399.08;;;23.94;57.83
59073;BME280;44859;51.934;15.554;2023-09-08T09:41:18;100400.21;;;24.16;56.56
59073;BME280;44859;51.934;15.554;2023-09-08T09:43:51;100395.81;;;24.24;56.12
59073;BME280;44859;51.934;15.554;2023-09-08T09:46:20;100392.52;;;24.32;56.27
59073;BME280;44859;51.934;15.554;2023-09-08T09:48:55;100392.33;;;24.30;56.13
59073;BME280;44859;51.934;15.554;2023-09-08T09:51:26;100392.13;;;24.40;56.07
59073;BME280;44859;51.934;15.554;2023-09-08T09:53:55;100387.39;;;24.58;54.86
59073;BME280;44859;51.934;15.554;2023-09-08T09:56:24;100387.63;;;24.64;54.31
59073;BME280;44859;51.934;15.554;2023-09-08T09:58:53;100386.67;;;24.72;54.27
59073;BME280;44859;51.934;15.554;2023-09-08T10:01:32;100388.89;;;24.75;54.24
59073;BME280;44859;51.934;15.554;2023-09-08T10:04:14;100386.98;;;24.76;53.39
59073;BME280;44859;51.934;15.554;2023-09-08T10:06:55;100385.14;;;24.95;53.60
59073;BME280;44859;51.934;15.554;2023-09-08T10:09:33;100385.80;;;25.15;52.61
59073;BME280;44859;51.934;15.554;2023-09-08T10:12:05;100378.39;;;25.32;51.24
59073;BME280;44859;51.934;15.554;2023-09-08T10:14:36;100376.41;;;25.42;50.88
59073;BME280;44859;51.934;15.554;2023-09-08T10:17:21;100376.89;;;25.57;50.63
59073;BME280;44859;51.934;15.554;2023-09-08T10:19:57;100369.81;;;25.69;48.98
59073;BME280;44859;51.934;15.554;2023-09-08T10:22:31;100366.52;;;25.65;49.26
59073;BME280;44859;51.934;15.554;2023-09-08T10:25:03;100363.91;;;25.73;49.56
59073;BME280;44859;51.934;15.554;2023-09-08T10:27:32;100365.95;;;25.85;49.66
59073;BME280;44859;51.934;15.554;2023-09-08T10:30:00;100362.98;;;25.96;49.03
59073;BME280;44859;51.934;15.554;2023-09-08T10:32:29;100357.83;;;26.06;48.78
59073;BME280;44859;51.934;15.554;2023-09-08T10:34:59;100358.43;;;26.12;48.32
59073;BME280;44859;51.934;15.554;2023-09-08T10:37:28;100366.99;;;26.27;46.98
59073;BME280;44859;51.934;15.554;2023-09-08T10:40:23;100368.48;;;26.38;46.87
59073;BME280;44859;51.934;15.554;2023-09-08T10:43:07;100363.52;;;26.51;46.73
59073;BME280;44859;51.934;15.554;2023-09-08T10:45:39;100363.87;;;26.76;46.34
59073;BME280;44859;51.934;15.554;2023-09-08T10:48:13;100357.63;;;26.96;45.57
59073;BME280;44859;51.934;15.554;2023-09-08T10:51:10;100355.78;;;26.80;45.17
59073;BME280;44859;51.934;15.554;2023-09-08T10:53:40;100357.13;;;26.80;45.34
59073;BME280;44859;51.934;15.554;2023-09-08T10:56:20;100351.91;;;26.97;45.28
59073;BME280;44859;51.934;15.554;2023-09-08T10:58:50;100349.84;;;27.37;44.58
59073;BME280;44859;51.934;15.554;2023-09-08T11:01:22;100351.58;;;27.40;44.44
59073;BME280;44859;51.934;15.554;2023-09-08T11:03:54;100347.25;;;27.40;44.12
59073;BME280;44859;51.934;15.554;2023-09-08T11:06:25;100348.02;;;27.21;44.24
59073;BME280;44859;51.934;15.554;2023-09-08T11:09:07;100343.42;;;27.20;44.10
59073;BME280;44859;51.934;15.554;2023-09-08T11:11:35;100348.06;;;27.27;43.70
59073;BME280;44859;51.934;15.554;2023-09-08T11:14:03;100348.98;;;27.53;42.95
59073;BME280;44859;51.934;15.554;2023-09-08T11:16:31;100347.56;;;27.74;42.02
59073;BME280;44859;51.934;15.554;2023-09-08T11:19:00;100353.52;;;27.65;41.72
59073;BME280;44859;51.934;15.554;2023-09-08T11:21:40;100351.26;;;27.56;42.03
59073;BME280;44859;51.934;15.554;2023-09-08T11:24:09;100348.88;;;27.62;42.08
59073;BME280;44859;51.934;15.554;2023-09-08T11:26:37;100346.86;;;27.71;40.90
59073;BME280;44859;51.934;15.554;2023-09-08T11:29:07;100341.67;;;27.75;40.51
59073;BME280;44859;51.934;15.554;2023-09-08T11:31:34;100340.92;;;27.50;41.70
59073;BME280;44859;51.934;15.554;2023-09-08T11:34:04;100339.37;;;27.47;42.53
59073;BME280;44859;51.934;15.554;2023-09-08T11:36:32;100340.98;;;27.51;42.46
59073;BME280;44859;51.934;15.554;2023-09-08T11:38:59;100342.62;;;27.43;42.74
59073;BME280;44859;51.934;15.554;2023-09-08T11:41:27;100339.98;;;27.45;43.31
59073;BME280;44859;51.934;15.554;2023-09-08T11:43:55;100338.74;;;27.71;43.12
59073;BME280;44859;51.934;15.554;2023-09-08T11:46:22;100335.98;;;27.87;42.03
59073;BME280;44859;51.934;15.554;2023-09-08T11:48:50;100336.02;;;28.03;41.25
59073;BME280;44859;51.934;15.554;2023-09-08T11:51:22;100332.59;;;27.96;41.79
59073;BME280;44859;51.934;15.554;2023-09-08T11:53:50;100334.54;;;27.99;42.17
59073;BME280;44859;51.934;15.554;2023-09-08T11:56:17;100330.94;;;28.05;41.48
59073;BME280;44859;51.934;15.554;2023-09-08T11:58:47;100327.96;;;27.90;41.80
59073;BME280;44859;51.934;15.554;2023-09-08T12:01:14;100328.38;;;28.04;41.46
59073;BME280;44859;51.934;15.554;2023-09-08T12:03:55;100322.52;;;28.03;41.08
59073;BME280;44859;51.934;15.554;2023-09-08T12:06:27;100322.48;;;28.03;41.40
59073;BME280;44859;51.934;15.554;2023-09-08T12:08:56;100320.33;;;28.17;40.59
59073;BME280;44859;51.934;15.554;2023-09-08T12:11:33;100312.73;;;28.38;40.54
59073;BME280;44859;51.934;15.554;2023-09-08T12:14:07;100314.15;;;28.44;40.48
59073;BME280;44859;51.934;15.554;2023-09-08T12:16:35;100310.72;;;28.44;40.05
59073;BME280;44859;51.934;15.554;2023-09-08T12:19:08;100307.08;;;28.46;40.11
59073;BME280;44859;51.934;15.554;2023-09-08T12:21:59;100304.42;;;28.61;40.22
59073;BME280;44859;51.934;15.554;2023-09-08T12:24:49;100303.58;;;28.73;40.08
59073;BME280;44859;51.934;15.554;2023-09-08T12:27:17;100301.57;;;28.64;40.33
59073;BME280;44859;51.934;15.554;2023-09-08T12:29:54;100301.20;;;28.56;39.77
59073;BME280;44859;51.934;15.554;2023-09-08T12:32:22;100302.25;;;28.45;40.05
59073;BME280;44859;51.934;15.554;2023-09-08T12:34:53;100297.63;;;28.60;39.85
59073;BME280;44859;51.934;15.554;2023-09-08T12:37:25;100297.92;;;28.67;39.40
59073;BME280;44859;51.934;15.554;2023-09-08T12:39:57;100293.34;;;28.57;39.72
59073;BME280;44859;51.934;15.554;2023-09-08T12:42:24;100291.22;;;28.49;40.18
59073;BME280;44859;51.934;15.554;2023-09-08T12:44:53;100292.58;;;28.43;39.99
59073;BME280;44859;51.934;15.554;2023-09-08T12:47:21;100283.89;;;28.36;39.62
59073;BME280;44859;51.934;15.554;2023-09-08T12:49:49;100288.77;;;28.02;39.78
59073;BME280;44859;51.934;15.554;2023-09-08T12:52:16;100289.42;;;28.08;39.71
59073;BME280;44859;51.934;15.554;2023-09-08T12:54:44;100293.87;;;28.18;39.61
59073;BME280;44859;51.934;15.554;2023-09-08T12:57:11;100282.54;;;28.26;39.11
59073;BME280;44859;51.934;15.554;2023-09-08T12:59:44;100280.80;;;28.20;39.41
59073;BME280;44859;51.934;15.554;2023-09-08T13:02:12;100277.58;;;28.34;38.99
59073;BME280;44859;51.934;15.554;2023-09-08T13:04:39;100276.68;;;28.56;38.68
59073;BME280;44859;51.934;15.554;2023-09-08T13:07:07;100268.72;;;28.73;38.74
59073;BME280;44859;51.934;15.554;2023-09-08T13:09:34;100269.46;;;28.68;39.66
59073;BME280;44859;51.934;15.554;2023-09-08T13:12:01;100270.55;;;28.63;39.93
59073;BME280;44859;51.934;15.554;2023-09-08T13:14:28;100263.18;;;28.74;39.32
59073;BME280;44859;51.934;15.554;2023-09-08T13:16:55;100265.77;;;28.74;38.92
59073;BME280;44859;51.934;15.554;2023-09-08T13:19:23;100265.68;;;28.51;38.90
59073;BME280;44859;51.934;15.554;2023-09-08T13:21:58;100268.35;;;28.04;39.00
59073;BME280;44859;51.934;15.554;2023-09-08T13:24:57;100267.48;;;27.96;39.31
59073;BME280;44859;51.934;15.554;2023-09-08T13:27:27;100264.27;;;28.09;39.50
59073;BME280;44859;51.934;15.554;2023-09-08T13:30:10;100258.73;;;28.45;39.52
59073;BME280;44859;51.934;15.554;2023-09-08T13:32:38;100249.88;;;28.69;39.40
59073;BME280;44859;51.934;15.554;2023-09-08T13:35:07;100254.60;;;28.65;39.71
59073;BME280;44859;51.934;15.554;2023-09-08T13:37:34;100246.98;;;28.61;40.28
59073;BME280;44859;51.934;15.554;2023-09-08T13:40:04;100249.39;;;28.70;39.73
59073;BME280;44859;51.934;15.554;2023-09-08T13:42:32;100248.61;;;28.83;39.41
59073;BME280;44859;51.934;15.554;2023-09-08T13:44:59;100246.86;;;28.96;38.53
59073;BME280;44859;51.934;15.554;2023-09-08T13:47:28;100249.45;;;29.01;38.23
59073;BME280;44859;51.934;15.554;2023-09-08T13:49:55;100246.45;;;29.04;38.10
59073;BME280;44859;51.934;15.554;2023-09-08T13:52:25;100246.76;;;29.13;38.00
59073;BME280;44859;51.934;15.554;2023-09-08T13:54:58;100241.74;;;29.10;38.28
59073;BME280;44859;51.934;15.554;2023-09-08T13:57:29;100238.35;;;29.03;38.57
59073;BME280;44859;51.934;15.554;2023-09-08T13:59:56;100232.52;;;29.07;38.33
59073;BME280;44859;51.934;15.554;2023-09-08T14:02:25;100231.45;;;28.76;38.33
59073;BME280;44859;51.934;15.554;2023-09-08T14:05:09;100229.42;;;28.57;38.79